sensor_id;sensor_type;location;lat;lon;timestamp;pressure;altitude;pressure_sealevel;temperature;humidity
12951;BME280;6540;50.858;7.232;2023-01-31T00:02:18;51935.25;;;-142.34;29.37
12951;BME280;6540;50.858;7.232;2023-01-31T00:04:43;51935.25;;;-142.34;28.66
12951;BME280;6540;50.858;7.232;2023-01-31T00:07:09;51909.00;;;-142.34;31.36
12951;BME280;6540;50.858;7.232;2023-01-31T00:09:35;51951.38;;;-142.34;28.95
12951;BME280;6540;50.858;7.232;2023-01-31T00:12:00;51900.94;;;-142.34;29.18
12951;BME280;6540;50.858;7.232;2023-01-31T00:14:25;51896.91;;;-142.34;31.29
12951;BME280;6540;50.858;7.232;2023-01-31T00:16:51;51923.13;;;-142.34;28.64
12951;BME280;6540;50.858;7.232;2023-01-31T00:19:16;51939.28;;;-142.34;30.09
12951;BME280;6540;50.858;7.232;2023-01-31T00:21:41;51949.34;;;-142.34;29.38
12951;BME280;6540;50.858;7.232;2023-01-31T00:24:11;51923.13;;;-142.34;29.60
12951;BME280;6540;50.858;7.232;2023-01-31T00:26:37;51931.19;;;-142.34;31.21
12951;BME280;6540;50.858;7.232;2023-01-31T00:29:04;51907.00;;;-142.34;30.33
12951;BME280;6540;50.858;7.232;2023-01-31T00:31:31;51917.06;;;-142.34;31.24
12951;BME280;6540;50.858;7.232;2023-01-31T00:33:58;51898.94;;;-142.34;29.48
12951;BME280;6540;50.858;7.232;2023-01-31T00:36:26;51931.19;;;-142.34;30.18
12951;BME280;6540;50.858;7.232;2023-01-31T00:38:53;51904.97;;;-142.34;31.13
12951;BME280;6540;50.858;7.232;2023-01-31T00:41:21;51937.25;;;-142.34;30.51
12951;BME280;6540;50.858;7.232;2023-01-31T00:43:46;51941.28;;;-142.34;29.02
12951;BME280;6540;50.858;7.232;2023-01-31T00:46:12;51955.41;;;-142.34;30.40
12951;BME280;6540;50.858;7.232;2023-01-31T00:48:38;51963.47;;;-142.34;29.13
12951;BME280;6540;50.858;7.232;2023-01-31T00:51:04;51963.47;;;-142.34;30.50
12951;BME280;6540;50.858;7.232;2023-01-31T00:53:29;51904.97;;;-142.34;29.03
12951;BME280;6540;50.858;7.232;2023-01-31T00:56:01;51915.06;;;-142.34;29.51
12951;BME280;6540;50.858;7.232;2023-01-31T00:58:27;51947.34;;;-142.34;29.78
12951;BME280;6540;50.858;7.232;2023-01-31T01:00:52;51935.25;;;-142.34;29.77
12951;BME280;6540;50.858;7.232;2023-01-31T01:03:18;51963.47;;;-142.34;28.54
12951;BME280;6540;50.858;7.232;2023-01-31T01:05:43;51917.06;;;-142.34;29.63
12951;BME280;6540;50.858;7.232;2023-01-31T01:08:09;51945.31;;;-142.34;29.65
12951;BME280;6540;50.858;7.232;2023-01-31T01:10:34;51943.31;;;-142.34;30.46
12951;BME280;6540;50.858;7.232;2023-01-31T01:13:00;51943.31;;;-142.34;29.78
12951;BME280;6540;50.858;7.232;2023-01-31T01:15:26;51931.19;;;-142.34;30.18
12951;BME280;6540;50.858;7.232;2023-01-31T01:17:51;51931.19;;;-142.34;29.90
12951;BME280;6540;50.858;7.232;2023-01-31T01:20:17;51971.53;;;-142.34;29.04
12951;BME280;6540;50.858;7.232;2023-01-31T01:22:42;51935.25;;;-142.34;29.92
12951;BME280;6540;50.858;7.232;2023-01-31T01:25:08;51935.25;;;-142.34;29.61
12951;BME280;6540;50.858;7.232;2023-01-31T01:27:34;51927.16;;;-142.34;29.78
12951;BME280;6540;50.858;7.232;2023-01-31T01:29:59;51898.94;;;-142.34;28.95
12951;BME280;6540;50.858;7.232;2023-01-31T01:32:26;51965.50;;;-142.34;28.85
12951;BME280;6540;50.858;7.232;2023-01-31T01:34:52;51963.47;;;-142.34;29.71
12951;BME280;6540;50.858;7.232;2023-01-31T01:37:17;51951.38;;;-142.34;30.06
12951;BME280;6540;50.858;7.232;2023-01-31T01:39:47;51927.16;;;-142.34;28.64
12951;BME280;6540;50.858;7.232;2023-01-31T01:42:16;51919.09;;;-142.34;29.41
12951;BME280;6540;50.858;7.232;2023-01-31T01:49:39;51931.19;;;-142.34;29.32
12951;BME280;6540;50.858;7.232;2023-01-31T01:52:07;51927.16;;;-142.34;29.93
12951;BME280;6540;50.858;7.232;2023-01-31T01:54:43;51935.25;;;-142.34;30.07
12951;BME280;6540;50.858;7.232;2023-01-31T01:57:11;51935.25;;;-142.34;30.42
12951;BME280;6540;50.858;7.232;2023-01-31T01:59:42;51933.22;;;-142.34;29.50
12951;BME280;6540;50.858;7.232;2023-01-31T02:02:09;51933.22;;;-142.34;30.29
12951;BME280;6540;50.858;7.232;2023-01-31T02:04:37;51937.25;;;-142.34;29.29
12951;BME280;6540;50.858;7.232;2023-01-31T02:07:04;51890.84;;;-142.34;29.95
12951;BME280;6540;50.858;7.232;2023-01-31T02:09:38;51939.28;;;-142.34;28.73
12951;BME280;6540;50.858;7.232;2023-01-31T02:12:08;51961.47;;;-142.34;29.83
12951;BME280;6540;50.858;7.232;2023-01-31T02:14:35;51937.25;;;-142.34;30.63
12951;BME280;6540;50.858;7.232;2023-01-31T02:17:01;51947.34;;;-142.34;30.61
12951;BME280;6540;50.858;7.232;2023-01-31T02:22:11;51902.97;;;-142.34;28.89
12951;BME280;6540;50.858;7.232;2023-01-31T02:33:24;51939.28;;;-142.34;28.89
12951;BME280;6540;50.858;7.232;2023-01-31T02:38:58;51941.28;;;-142.34;28.85
12951;BME280;6540;50.858;7.232;2023-01-31T02:41:29;51896.91;;;-142.34;28.26
12951;BME280;6540;50.858;7.232;2023-01-31T02:47:24;51935.25;;;-142.34;29.12
12951;BME280;6540;50.858;7.232;2023-01-31T02:50:13;51941.28;;;-142.34;28.35
12951;BME280;6540;50.858;7.232;2023-01-31T02:52:55;51911.03;;;-142.34;29.41
12951;BME280;6540;50.858;7.232;2023-01-31T02:58:17;51939.28;;;-142.34;28.80
12951;BME280;6540;50.858;7.232;2023-01-31T03:00:45;51975.59;;;-142.34;28.67
12951;BME280;6540;50.858;7.232;2023-01-31T03:03:21;51935.25;;;-142.34;28.66
12951;BME280;6540;50.858;7.232;2023-01-31T03:06:37;51959.44;;;-142.34;28.83
12951;BME280;6540;50.858;7.232;2023-01-31T03:18:11;51951.38;;;-142.34;28.33
12951;BME280;6540;50.858;7.232;2023-01-31T03:21:12;51935.25;;;-142.34;28.63
12951;BME280;6540;50.858;7.232;2023-01-31T03:23:40;51907.00;;;-142.34;28.12
12951;BME280;6540;50.858;7.232;2023-01-31T03:26:08;51949.34;;;-142.34;29.97
12951;BME280;6540;50.858;7.232;2023-01-31T03:28:37;51955.41;;;-142.34;29.35
12951;BME280;6540;50.858;7.232;2023-01-31T03:31:37;51921.13;;;-142.34;28.11
12951;BME280;6540;50.858;7.232;2023-01-31T03:34:08;51943.31;;;-142.34;28.27
12951;BME280;6540;50.858;7.232;2023-01-31T03:40:45;51927.16;;;-142.34;28.27
12951;BME280;6540;50.858;7.232;2023-01-31T03:42:54;51939.28;;;-142.34;28.10
12951;BME280;6540;50.858;7.232;2023-01-31T03:45:38;51941.28;;;-142.34;28.19
12951;BME280;6540;50.858;7.232;2023-01-31T03:48:06;51915.06;;;-142.34;28.47
12951;BME280;6540;50.858;7.232;2023-01-31T03:50:44;51935.25;;;-142.34;28.47
12951;BME280;6540;50.858;7.232;2023-01-31T03:56:00;51933.22;;;-142.34;28.31
12951;BME280;6540;50.858;7.232;2023-01-31T03:58:29;51931.19;;;-142.34;28.83
12951;BME280;6540;50.858;7.232;2023-01-31T04:01:01;51923.13;;;-142.34;28.22
12951;BME280;6540;50.858;7.232;2023-01-31T04:03:36;51959.44;;;-142.34;29.00
12951;BME280;6540;50.858;7.232;2023-01-31T04:06:03;51963.47;;;-142.34;28.88
12951;BME280;6540;50.858;7.232;2023-01-31T04:08:31;51886.81;;;-142.34;28.70
12951;BME280;6540;50.858;7.232;2023-01-31T04:10:57;51907.00;;;-142.34;28.30
12951;BME280;6540;50.858;7.232;2023-01-31T04:13:23;51919.09;;;-142.34;28.24
12951;BME280;6540;50.858;7.232;2023-01-31T04:15:49;51931.19;;;-142.34;28.83
12951;BME280;6540;50.858;7.232;2023-01-31T04:18:14;51955.41;;;-142.34;28.42
12951;BME280;6540;50.858;7.232;2023-01-31T04:20:39;51927.16;;;-142.34;28.82
12951;BME280;6540;50.858;7.232;2023-01-31T04:23:05;51951.38;;;-142.34;28.36
12951;BME280;6540;50.858;7.232;2023-01-31T04:25:30;51943.31;;;-142.34;28.46
12951;BME280;6540;50.858;7.232;2023-01-31T04:27:55;51931.19;;;-142.34;28.68
12951;BME280;6540;50.858;7.232;2023-01-31T04:30:21;51947.34;;;-142.34;28.57
12951;BME280;6540;50.858;7.232;2023-01-31T04:32:46;51919.09;;;-142.34;28.63
12951;BME280;6540;50.858;7.232;2023-01-31T04:35:11;51935.25;;;-142.34;28.46
12951;BME280;6540;50.858;7.232;2023-01-31T04:37:37;51931.19;;;-142.34;28.85
12951;BME280;6540;50.858;7.232;2023-01-31T04:40:02;51947.34;;;-142.34;28.26
12951;BME280;6540;50.858;7.232;2023-01-31T04:42:28;51915.06;;;-142.34;28.85
12951;BME280;6540;50.858;7.232;2023-01-31T04:44:53;51927.16;;;-142.34;28.58
12951;BME280;6540;50.858;7.232;2023-01-31T04:47:19;51913.03;;;-142.34;28.40
12951;BME280;6540;50.858;7.232;2023-01-31T04:49:44;51939.28;;;-142.34;28.56
12951;BME280;6540;50.858;7.232;2023-01-31T04:52:10;51915.06;;;-142.34;28.90
12951;BME280;6540;50.858;7.232;2023-01-31T04:54:35;51935.25;;;-142.34;28.74
12951;BME280;6540;50.858;7.232;2023-01-31T04:57:01;51947.34;;;-142.34;28.86
12951;BME280;6540;50.858;7.232;2023-01-31T04:59:26;51923.13;;;-142.34;28.90
12951;BME280;6540;50.858;7.232;2023-01-31T05:01:52;51941.28;;;-142.34;29.13
12951;BME280;6540;50.858;7.232;2023-01-31T05:04:17;51923.13;;;-142.34;29.06
12951;BME280;6540;50.858;7.232;2023-01-31T05:06:43;51917.06;;;-142.34;28.87
12951;BME280;6540;50.858;7.232;2023-01-31T05:09:08;51911.03;;;-142.34;28.92
12951;BME280;6540;50.858;7.232;2023-01-31T05:11:33;51961.47;;;-142.34;29.03
12951;BME280;6540;50.858;7.232;2023-01-31T05:13:59;51947.34;;;-142.34;28.85
12951;BME280;6540;50.858;7.232;2023-01-31T05:16:24;51933.22;;;-142.34;28.68
12951;BME280;6540;50.858;7.232;2023-01-31T05:18:49;51943.31;;;-142.34;28.56
12951;BME280;6540;50.858;7.232;2023-01-31T05:21:15;51923.13;;;-142.34;28.90
12951;BME280;6540;50.858;7.232;2023-01-31T05:23:40;51923.13;;;-142.34;28.82
12951;BME280;6540;50.858;7.232;2023-01-31T05:26:05;51955.41;;;-142.34;29.09
12951;BME280;6540;50.858;7.232;2023-01-31T05:28:31;51955.41;;;-142.34;28.85
12951;BME280;6540;50.858;7.232;2023-01-31T05:31:07;51943.31;;;-142.34;28.91
12951;BME280;6540;50.858;7.232;2023-01-31T05:33:33;51917.06;;;-142.34;28.88
12951;BME280;6540;50.858;7.232;2023-01-31T05:35:59;51902.97;;;-142.34;29.01
12951;BME280;6540;50.858;7.232;2023-01-31T05:38:24;51913.03;;;-142.34;28.56
12951;BME280;6540;50.858;7.232;2023-01-31T05:40:51;51927.16;;;-142.34;28.72
12951;BME280;6540;50.858;7.232;2023-01-31T05:43:16;51957.44;;;-142.34;28.49
12951;BME280;6540;50.858;7.232;2023-01-31T05:45:42;51937.25;;;-142.34;28.85
12951;BME280;6540;50.858;7.232;2023-01-31T05:48:07;51927.16;;;-142.34;28.67
12951;BME280;6540;50.858;7.232;2023-01-31T05:50:33;51953.41;;;-142.34;28.96
12951;BME280;6540;50.858;7.232;2023-01-31T05:52:59;51911.03;;;-142.34;29.01
12951;BME280;6540;50.858;7.232;2023-01-31T05:55:25;51951.38;;;-142.34;28.59
12951;BME280;6540;50.858;7.232;2023-01-31T05:57:52;51951.38;;;-142.34;28.91
12951;BME280;6540;50.858;7.232;2023-01-31T06:00:18;51923.13;;;-142.34;28.85
12951;BME280;6540;50.858;7.232;2023-01-31T06:02:44;51941.28;;;-142.34;29.14
12951;BME280;6540;50.858;7.232;2023-01-31T06:05:10;51923.13;;;-142.34;29.20
12951;BME280;6540;50.858;7.232;2023-01-31T06:07:36;51923.13;;;-142.34;28.96
12951;BME280;6540;50.858;7.232;2023-01-31T06:10:02;51937.25;;;-142.34;28.88
12951;BME280;6540;50.858;7.232;2023-01-31T06:12:29;51927.16;;;-142.34;29.02
12951;BME280;6540;50.858;7.232;2023-01-31T06:14:55;51967.50;;;-142.34;29.21
12951;BME280;6540;50.858;7.232;2023-01-31T06:17:21;51975.59;;;-142.34;29.26
12951;BME280;6540;50.858;7.232;2023-01-31T06:19:48;51943.31;;;-142.34;28.95
12951;BME280;6540;50.858;7.232;2023-01-31T06:22:13;51935.25;;;-142.34;28.93
12951;BME280;6540;50.858;7.232;2023-01-31T06:24:39;51935.25;;;-142.34;29.43
12951;BME280;6540;50.858;7.232;2023-01-31T06:27:04;51949.34;;;-142.34;29.07
12951;BME280;6540;50.858;7.232;2023-01-31T06:29:30;51959.44;;;-142.34;29.02
12951;BME280;6540;50.858;7.232;2023-01-31T06:31:55;51945.31;;;-142.34;29.23
12951;BME280;6540;50.858;7.232;2023-01-31T06:34:20;51939.28;;;-142.34;29.43
12951;BME280;6540;50.858;7.232;2023-01-31T06:36:45;51943.31;;;-142.34;29.17
12951;BME280;6540;50.858;7.232;2023-01-31T06:39:12;51963.47;;;-142.34;29.03
12951;BME280;6540;50.858;7.232;2023-01-31T06:41:38;51963.47;;;-142.34;29.08
12951;BME280;6540;50.858;7.232;2023-01-31T06:44:03;51953.41;;;-142.34;29.27
12951;BME280;6540;50.858;7.232;2023-01-31T06:46:29;51947.34;;;-142.34;29.41
12951;BME280;6540;50.858;7.232;2023-01-31T06:48:54;51919.09;;;-142.34;29.31
12951;BME280;6540;50.858;7.232;2023-01-31T06:51:19;51959.44;;;-142.34;29.28
12951;BME280;6540;50.858;7.232;2023-01-31T06:53:45;51959.44;;;-142.34;29.46
12951;BME280;6540;50.858;7.232;2023-01-31T06:56:10;51953.41;;;-142.34;29.36
12951;BME280;6540;50.858;7.232;2023-01-31T06:58:35;51943.31;;;-142.34;29.21
12951;BME280;6540;50.858;7.232;2023-01-31T07:01:19;51898.94;;;-142.34;28.95
12951;BME280;6540;50.858;7.232;2023-01-31T07:03:46;51963.47;;;-142.34;28.97
12951;BME280;6540;50.858;7.232;2023-01-31T07:06:12;51917.06;;;-142.34;29.31
12951;BME280;6540;50.858;7.232;2023-01-31T07:08:38;51943.31;;;-142.34;29.02
12951;BME280;6540;50.858;7.232;2023-01-31T07:11:04;51959.44;;;-142.34;29.26
12951;BME280;6540;50.858;7.232;2023-01-31T07:13:29;51973.56;;;-142.34;29.42
12951;BME280;6540;50.858;7.232;2023-01-31T07:15:55;51947.34;;;-142.34;29.78
12951;BME280;6540;50.858;7.232;2023-01-31T07:18:21;51947.34;;;-142.34;29.17
12951;BME280;6540;50.858;7.232;2023-01-31T07:20:46;51963.47;;;-142.34;29.93
12951;BME280;6540;50.858;7.232;2023-01-31T07:23:12;51919.09;;;-142.34;29.28
12951;BME280;6540;50.858;7.232;2023-01-31T07:25:37;51947.34;;;-142.34;29.87
12951;BME280;6540;50.858;7.232;2023-01-31T07:28:03;51935.25;;;-142.34;29.57
12951;BME280;6540;50.858;7.232;2023-01-31T07:30:29;51963.47;;;-142.34;30.00
12951;BME280;6540;50.858;7.232;2023-01-31T07:32:54;51967.50;;;-142.34;29.48
12951;BME280;6540;50.858;7.232;2023-01-31T07:35:20;51947.34;;;-142.34;30.49
12951;BME280;6540;50.858;7.232;2023-01-31T07:37:45;51943.31;;;-142.34;29.79
12951;BME280;6540;50.858;7.232;2023-01-31T07:40:12;51947.34;;;-142.34;29.52
12951;BME280;6540;50.858;7.232;2023-01-31T07:42:38;51955.41;;;-142.34;29.65
12951;BME280;6540;50.858;7.232;2023-01-31T07:45:04;51943.31;;;-142.34;29.54
12951;BME280;6540;50.858;7.232;2023-01-31T07:47:31;51947.34;;;-142.34;29.70
12951;BME280;6540;50.858;7.232;2023-01-31T07:49:56;51923.13;;;-142.34;31.04
12951;BME280;6540;50.858;7.232;2023-01-31T07:52:21;51947.34;;;-142.34;30.97
12951;BME280;6540;50.858;7.232;2023-01-31T07:54:47;51933.22;;;-142.34;30.96
12951;BME280;6540;50.858;7.232;2023-01-31T07:57:12;51949.34;;;-142.34;30.76
12951;BME280;6540;50.858;7.232;2023-01-31T07:59:37;51913.03;;;-142.34;31.44
12951;BME280;6540;50.858;7.232;2023-01-31T08:02:03;51951.38;;;-142.34;30.17
12951;BME280;6540;50.858;7.232;2023-01-31T08:04:47;51971.53;;;-142.34;30.92
12951;BME280;6540;50.858;7.232;2023-01-31T08:07:12;51939.28;;;-142.34;31.36
12951;BME280;6540;50.858;7.232;2023-01-31T08:09:37;51917.06;;;-142.34;30.87
12951;BME280;6540;50.858;7.232;2023-01-31T08:12:04;51915.06;;;-142.34;31.43
12951;BME280;6540;50.858;7.232;2023-01-31T08:14:29;51931.19;;;-142.34;31.09
12951;BME280;6540;50.858;7.232;2023-01-31T08:16:55;51943.31;;;-142.34;30.58
12951;BME280;6540;50.858;7.232;2023-01-31T08:19:21;51975.59;;;-142.34;30.07
12951;BME280;6540;50.858;7.232;2023-01-31T08:21:47;51975.59;;;-142.34;30.21
12951;BME280;6540;50.858;7.232;2023-01-31T08:24:12;51971.53;;;-142.34;30.18
12951;BME280;6540;50.858;7.232;2023-01-31T08:26:38;52005.84;;;-142.34;29.90
12951;BME280;6540;50.858;7.232;2023-01-31T08:29:03;51979.63;;;-142.34;30.13
12951;BME280;6540;50.858;7.232;2023-01-31T08:31:29;51947.34;;;-142.34;29.87
12951;BME280;6540;50.858;7.232;2023-01-31T08:33:54;51953.41;;;-142.34;29.58
12951;BME280;6540;50.858;7.232;2023-01-31T08:36:25;51935.25;;;-142.34;29.64
12951;BME280;6540;50.858;7.232;2023-01-31T08:38:51;51939.28;;;-142.34;30.58
12951;BME280;6540;50.858;7.232;2023-01-31T08:41:18;51943.31;;;-142.34;30.48
12951;BME280;6540;50.858;7.232;2023-01-31T08:43:45;51951.38;;;-142.34;31.09
12951;BME280;6540;50.858;7.232;2023-01-31T08:46:11;51927.16;;;-142.34;30.69
12951;BME280;6540;50.858;7.232;2023-01-31T08:48:37;51913.03;;;-142.34;30.91
12951;BME280;6540;50.858;7.232;2023-01-31T08:51:09;51951.38;;;-142.34;30.09
12951;BME280;6540;50.858;7.232;2023-01-31T08:53:39;51941.28;;;-142.34;29.74
12951;BME280;6540;50.858;7.232;2023-01-31T08:56:06;51955.41;;;-142.34;31.29
12951;BME280;6540;50.858;7.232;2023-01-31T08:58:32;51931.19;;;-142.34;30.67
12951;BME280;6540;50.858;7.232;2023-01-31T09:01:15;51927.16;;;-142.34;30.02
12951;BME280;6540;50.858;7.232;2023-01-31T09:03:41;51947.34;;;-142.34;30.57
12951;BME280;6540;50.858;7.232;2023-01-31T09:06:10;51987.69;;;-142.34;30.29
12951;BME280;6540;50.858;7.232;2023-01-31T09:08:36;51915.06;;;-142.34;30.35
12951;BME280;6540;50.858;7.232;2023-01-31T09:11:01;51971.53;;;-142.34;29.73
12951;BME280;6540;50.858;7.232;2023-01-31T09:13:28;51929.19;;;-142.34;30.69
12951;BME280;6540;50.858;7.232;2023-01-31T09:16:05;51951.38;;;-142.34;29.60
12951;BME280;6540;50.858;7.232;2023-01-31T09:18:32;51951.38;;;-142.34;29.90
12951;BME280;6540;50.858;7.232;2023-01-31T09:21:05;51943.31;;;-142.34;29.11
12951;BME280;6540;50.858;7.232;2023-01-31T09:23:32;51979.63;;;-142.34;28.87
12951;BME280;6540;50.858;7.232;2023-01-31T09:25:57;51951.38;;;-142.34;29.43
12951;BME280;6540;50.858;7.232;2023-01-31T09:28:24;51975.59;;;-142.34;29.15
12951;BME280;6540;50.858;7.232;2023-01-31T09:30:49;51941.28;;;-142.34;29.58
12951;BME280;6540;50.858;7.232;2023-01-31T09:33:17;51975.59;;;-142.34;29.00
12951;BME280;6540;50.858;7.232;2023-01-31T09:35:42;51947.34;;;-142.34;29.84
12951;BME280;6540;50.858;7.232;2023-01-31T09:38:07;51917.06;;;-142.34;29.81
12951;BME280;6540;50.858;7.232;2023-01-31T09:40:34;51935.25;;;-142.34;29.75
12951;BME280;6540;50.858;7.232;2023-01-31T09:43:02;51931.19;;;-142.34;30.89
12951;BME280;6540;50.858;7.232;2023-01-31T09:45:31;51983.66;;;-142.34;30.73
12951;BME280;6540;50.858;7.232;2023-01-31T09:47:58;51943.31;;;-142.34;30.94
12951;BME280;6540;50.858;7.232;2023-01-31T09:50:41;51939.28;;;-142.34;30.71
12951;BME280;6540;50.858;7.232;2023-01-31T09:53:12;51947.34;;;-142.34;31.89
12951;BME280;6540;50.858;7.232;2023-01-31T09:58:55;51907.00;;;-142.34;30.24
12951;BME280;6540;50.858;7.232;2023-01-31T10:01:41;51921.13;;;-142.34;29.90
12951;BME280;6540;50.858;7.232;2023-01-31T10:07:08;51939.28;;;-142.34;30.25
12951;BME280;6540;50.858;7.232;2023-01-31T10:10:03;51971.53;;;-142.34;30.80
12951;BME280;6540;50.858;7.232;2023-01-31T10:12:39;51955.41;;;-142.34;30.15
12951;BME280;6540;50.858;7.232;2023-01-31T10:15:41;51919.09;;;-142.34;31.18
12951;BME280;6540;50.858;7.232;2023-01-31T10:18:12;51911.03;;;-142.34;29.67
12951;BME280;6540;50.858;7.232;2023-01-31T10:20:49;51961.47;;;-142.34;30.85
12951;BME280;6540;50.858;7.232;2023-01-31T10:25:50;51963.47;;;-142.34;30.41
12951;BME280;6540;50.858;7.232;2023-01-31T10:28:18;51963.47;;;-142.34;30.22
12951;BME280;6540;50.858;7.232;2023-01-31T10:39:22;51935.25;;;-142.34;31.72
12951;BME280;6540;50.858;7.232;2023-01-31T10:47:14;51977.59;;;-142.34;31.00
12951;BME280;6540;50.858;7.232;2023-01-31T10:49:44;51943.31;;;-142.34;31.44
12951;BME280;6540;50.858;7.232;2023-01-31T10:57:58;51971.53;;;-142.34;32.07
12951;BME280;6540;50.858;7.232;2023-01-31T11:00:29;51955.41;;;-142.34;33.44
12951;BME280;6540;50.858;7.232;2023-01-31T11:02:56;51931.19;;;-142.34;33.91
12951;BME280;6540;50.858;7.232;2023-01-31T11:05:23;51919.09;;;-142.34;33.93
12951;BME280;6540;50.858;7.232;2023-01-31T11:07:49;51967.50;;;-142.34;34.94
12951;BME280;6540;50.858;7.232;2023-01-31T11:10:25;51947.34;;;-142.34;34.21
12951;BME280;6540;50.858;7.232;2023-01-31T11:15:19;51945.31;;;-142.34;33.25
12951;BME280;6540;50.858;7.232;2023-01-31T11:17:46;51967.50;;;-142.34;33.51
12951;BME280;6540;50.858;7.232;2023-01-31T11:22:51;51973.56;;;-142.34;34.31
12951;BME280;6540;50.858;7.232;2023-01-31T11:25:19;51959.44;;;-142.34;33.03
12951;BME280;6540;50.858;7.232;2023-01-31T11:27:46;51955.41;;;-142.34;33.70
12951;BME280;6540;50.858;7.232;2023-01-31T11:30:24;51975.59;;;-142.34;32.66
12951;BME280;6540;50.858;7.232;2023-01-31T11:32:51;51959.44;;;-142.34;33.73
12951;BME280;6540;50.858;7.232;2023-01-31T11:40:37;51939.28;;;-142.34;33.97
12951;BME280;6540;50.858;7.232;2023-01-31T11:43:29;51971.53;;;-142.34;33.78
12951;BME280;6540;50.858;7.232;2023-01-31T11:45:57;51955.41;;;-142.34;32.67
12951;BME280;6540;50.858;7.232;2023-01-31T11:48:40;51963.47;;;-142.34;32.66
12951;BME280;6540;50.858;7.232;2023-01-31T11:51:06;51947.34;;;-142.34;32.74
12951;BME280;6540;50.858;7.232;2023-01-31T11:53:47;51945.31;;;-142.34;32.81
12951;BME280;6540;50.858;7.232;2023-01-31T11:56:17;51935.25;;;-142.34;32.93
12951;BME280;6540;50.858;7.232;2023-01-31T11:58:45;51963.47;;;-142.34;33.64
12951;BME280;6540;50.858;7.232;2023-01-31T12:01:12;51935.25;;;-142.34;32.57
12951;BME280;6540;50.858;7.232;2023-01-31T12:03:39;51923.13;;;-142.34;33.95
12951;BME280;6540;50.858;7.232;2023-01-31T12:06:25;51973.56;;;-142.34;33.51
12951;BME280;6540;50.858;7.232;2023-01-31T12:08:56;51947.34;;;-142.34;33.54
12951;BME280;6540;50.858;7.232;2023-01-31T12:13:52;51894.88;;;-142.34;33.17
12951;BME280;6540;50.858;7.232;2023-01-31T12:16:20;51935.25;;;-142.34;32.95
12951;BME280;6540;50.858;7.232;2023-01-31T12:21:58;51975.59;;;-142.34;32.67
12951;BME280;6540;50.858;7.232;2023-01-31T12:27:38;51927.16;;;-142.34;32.05
12951;BME280;6540;50.858;7.232;2023-01-31T12:35:47;51927.16;;;-142.34;33.21
12951;BME280;6540;50.858;7.232;2023-01-31T12:49:47;51953.41;;;-142.34;30.66
12951;BME280;6540;50.858;7.232;2023-01-31T12:52:20;51961.47;;;-142.34;31.57
12951;BME280;6540;50.858;7.232;2023-01-31T12:57:45;51947.34;;;-142.34;30.89
12951;BME280;6540;50.858;7.232;2023-01-31T13:03:36;51929.19;;;-142.34;29.69
12951;BME280;6540;50.858;7.232;2023-01-31T13:08:34;51969.53;;;-142.34;31.55
12951;BME280;6540;50.858;7.232;2023-01-31T13:11:08;51943.31;;;-142.34;32.04
12951;BME280;6540;50.858;7.232;2023-01-31T13:13:49;51927.16;;;-142.34;31.42
12951;BME280;6540;50.858;7.232;2023-01-31T13:16:23;51947.34;;;-142.34;31.21
12951;BME280;6540;50.858;7.232;2023-01-31T13:18:53;51951.38;;;-142.34;31.79
12951;BME280;6540;50.858;7.232;2023-01-31T13:21:23;51931.19;;;-142.34;31.64
12951;BME280;6540;50.858;7.232;2023-01-31T13:24:02;51927.16;;;-142.34;31.48
12951;BME280;6540;50.858;7.232;2023-01-31T13:26:35;51919.09;;;-142.34;30.92
12951;BME280;6540;50.858;7.232;2023-01-31T13:29:11;51904.97;;;-142.34;31.31
12951;BME280;6540;50.858;7.232;2023-01-31T13:32:14;51935.25;;;-142.34;30.51
12951;BME280;6540;50.858;7.232;2023-01-31T13:34:48;51947.34;;;-142.34;31.35
12951;BME280;6540;50.858;7.232;2023-01-31T13:37:15;51949.34;;;-142.34;30.44
12951;BME280;6540;50.858;7.232;2023-01-31T13:39:53;51953.41;;;-142.34;31.82
12951;BME280;6540;50.858;7.232;2023-01-31T13:42:20;51973.56;;;-142.34;31.62
12951;BME280;6540;50.858;7.232;2023-01-31T13:44:46;51933.22;;;-142.34;30.54
12951;BME280;6540;50.858;7.232;2023-01-31T13:49:54;51935.25;;;-142.34;31.09
12951;BME280;6540;50.858;7.232;2023-01-31T13:52:33;51904.97;;;-142.34;30.38
12951;BME280;6540;50.858;7.232;2023-01-31T13:55:04;51913.03;;;-142.34;32.33
12951;BME280;6540;50.858;7.232;2023-01-31T13:57:34;51933.22;;;-142.34;33.08
12951;BME280;6540;50.858;7.232;2023-01-31T14:00:35;51915.06;;;-142.34;31.91
12951;BME280;6540;50.858;7.232;2023-01-31T14:03:11;51939.28;;;-142.34;33.83
12951;BME280;6540;50.858;7.232;2023-01-31T14:11:00;51939.28;;;-142.34;34.86
12951;BME280;6540;50.858;7.232;2023-01-31T14:15:57;51939.28;;;-142.34;34.25
12951;BME280;6540;50.858;7.232;2023-01-31T14:18:42;51959.44;;;-142.34;37.14
12951;BME280;6540;50.858;7.232;2023-01-31T14:23:57;51917.06;;;-142.34;36.19
12951;BME280;6540;50.858;7.232;2023-01-31T14:29:21;51931.19;;;-142.34;35.33
12951;BME280;6540;50.858;7.232;2023-01-31T14:31:48;51963.47;;;-142.34;34.53
12951;BME280;6540;50.858;7.232;2023-01-31T14:34:21;51935.25;;;-142.34;35.31
12951;BME280;6540;50.858;7.232;2023-01-31T14:42:28;51961.47;;;-142.34;34.73
12951;BME280;6540;50.858;7.232;2023-01-31T14:55:57;51935.25;;;-142.34;35.58
12951;BME280;6540;50.858;7.232;2023-01-31T14:58:28;51951.38;;;-142.34;35.65
12951;BME280;6540;50.858;7.232;2023-01-31T15:00:57;51943.31;;;-142.34;36.89
12951;BME280;6540;50.858;7.232;2023-01-31T15:03:30;51963.47;;;-142.34;33.89
12951;BME280;6540;50.858;7.232;2023-01-31T15:06:11;51963.47;;;-142.34;34.53
12951;BME280;6540;50.858;7.232;2023-01-31T15:08:42;51939.28;;;-142.34;35.36
12951;BME280;6540;50.858;7.232;2023-01-31T15:13:56;51935.25;;;-142.34;36.02
12951;BME280;6540;50.858;7.232;2023-01-31T15:18:52;51947.34;;;-142.34;33.82
12951;BME280;6540;50.858;7.232;2023-01-31T15:21:22;51959.44;;;-142.34;35.85
12951;BME280;6540;50.858;7.232;2023-01-31T15:23:49;51951.38;;;-142.34;37.15
12951;BME280;6540;50.858;7.232;2023-01-31T15:26:15;51933.22;;;-142.34;36.44
12951;BME280;6540;50.858;7.232;2023-01-31T15:28:43;51943.31;;;-142.34;36.99
12951;BME280;6540;50.858;7.232;2023-01-31T15:31:16;51949.34;;;-142.34;34.24
12951;BME280;6540;50.858;7.232;2023-01-31T15:33:44;51983.66;;;-142.34;36.31